Terminal Aerodrome Forecast
Issued by NWS

Home | Current Version | Previous Version | Text Only | Print | Product List | Glossary On
Versions: 1 2 3 4 5 6 7 8 9 10 11 12 13 14 15
000
FTUS44 KLZK 011700
TAFLLQ
TAF
KLLQ 011725Z 0118/0218 18008KT P6SM VCSH SCT040 OVC100
      TEMPO 0118/0122 3SM -TSRA BR BKN025CB
     FM020000 15003KT P6SM SCT050 BKN250
     FM021000 VRB03KT 6SM BR OVC025=

USA.gov is the U.S. government's official web portal to all federal, state and local government web resources and services.